Time;durP1;ratioP1;P1;durP2;ratioP2;P2;SDS_P1;SDS_P2;PMS_P1;PMS_P2;Temp;Humidity;BMP_temperature;BMP_pressure;BME280_temperature;BME280_humidity;BME280_pressure;Samples;Min_cycle;Max_cycle;Signal;HPM_P1;HPM_P2
2024/01/13 00:02:08;;;;;;;;;;;3.90;99.90;;;;;;8443182;28;19946;-73
2024/01/13 00:06:10;;;;;;;;;;;3.90;99.90;;;;;;8447883;28;19998;-73
2024/01/13 00:10:12;;;;;;;;;;;3.90;99.90;;;;;;8449219;28;19924;-73
2024/01/13 00:14:13;;;;;;;;;;;3.90;99.90;;;;;;8434842;28;20386;-73
2024/01/13 00:18:17;;;;;;;;;;;3.90;99.90;;;;;;8449296;28;19925;-73
2024/01/13 00:22:31;;;;;;;;;;;3.90;99.90;;;;;;8437925;28;19924;-73
2024/01/13 00:26:32;;;;;;;;;;;3.90;99.90;;;;;;8448630;28;19974;-73
2024/01/13 00:30:34;;;;;;;;;;;3.90;99.90;;;;;;8433258;28;20224;-74
2024/01/13 00:39:39;;;;;;;;;;;3.90;99.90;;;;;;8453774;28;19923;-73
2024/01/13 00:43:41;;;;;;;;;;;3.80;99.90;;;;;;8451483;28;20270;-74
2024/01/13 00:47:43;;;;;;;;;;;3.80;99.90;;;;;;8451091;28;19923;-74
2024/01/13 00:51:45;;;;;;;;;;;3.80;99.90;;;;;;8428122;28;19930;-73
2024/01/13 00:55:46;;;;;;;;;;;3.70;99.90;;;;;;8451330;28;19927;-73
2024/01/13 00:59:48;;;;;;;;;;;3.70;99.90;;;;;;8448589;28;20329;-73
2024/01/13 01:03:50;;;;;;;;;;;3.70;99.90;;;;;;8428306;28;19931;-73
2024/01/13 01:07:51;;;;;;;;;;;3.80;99.90;;;;;;8452484;28;19984;-73
2024/01/13 01:11:53;;;;;;;;;;;3.70;99.90;;;;;;8454550;28;19931;-73
2024/01/13 01:15:55;;;;;;;;;;;3.80;99.90;;;;;;8434241;28;19924;-73
2024/01/13 01:19:57;;;;;;;;;;;3.80;99.90;;;;;;8433342;28;20328;-73
2024/01/13 01:23:58;;;;;;;;;;;3.70;99.90;;;;;;8437118;28;19924;-73
2024/01/13 01:28:00;;;;;;;;;;;3.70;99.90;;;;;;8451819;28;19924;-73
2024/01/13 01:32:02;;;;;;;;;;;3.80;99.90;;;;;;8458197;28;19923;-74
2024/01/13 01:36:29;;;;;;;;;;;3.70;99.90;;;;;;8451647;28;19924;-73
2024/01/13 01:40:31;;;;;;;;;;;3.80;99.90;;;;;;8450254;28;19931;-73
2024/01/13 01:44:32;;;;;;;;;;;3.80;99.90;;;;;;8435108;28;20475;-73
2024/01/13 01:48:35;;;;;;;;;;;3.80;99.90;;;;;;8442165;28;19977;-73
2024/01/13 01:52:40;;;;;;;;;;;3.80;99.90;;;;;;8455429;28;19930;-73
2024/01/13 01:56:45;;;;;;;;;;;3.70;99.90;;;;;;8450954;28;19931;-73
2024/01/13 02:00:48;;;;;;;;;;;3.70;99.90;;;;;;8453839;28;19928;-74
2024/01/13 02:04:49;;;;;;;;;;;3.70;99.90;;;;;;8438892;27;20290;-73
2024/01/13 02:08:51;;;;;;;;;;;3.70;99.90;;;;;;8453285;28;19923;-73
2024/01/13 02:12:53;;;;;;;;;;;3.60;99.90;;;;;;8430418;28;20416;-73
2024/01/13 02:16:56;;;;;;;;;;;3.60;99.90;;;;;;8438513;28;19934;-73
2024/01/13 02:20:57;;;;;;;;;;;3.60;99.90;;;;;;8455625;28;19944;-74
2024/01/13 02:25:03;;;;;;;;;;;3.60;99.90;;;;;;8433816;28;19923;-73
2024/01/13 02:29:05;;;;;;;;;;;3.60;99.90;;;;;;8453731;28;19932;-73
2024/01/13 02:33:06;;;;;;;;;;;3.60;99.90;;;;;;8452760;27;20256;-73
2024/01/13 02:37:08;;;;;;;;;;;3.60;99.90;;;;;;8430429;28;19930;-73
2024/01/13 02:41:10;;;;;;;;;;;3.50;99.90;;;;;;8426145;28;19924;-73
2024/01/13 02:45:12;;;;;;;;;;;3.50;99.90;;;;;;8432424;28;19974;-74
2024/01/13 02:49:14;;;;;;;;;;;3.50;99.90;;;;;;8454083;28;20413;-74
2024/01/13 02:53:16;;;;;;;;;;;3.50;99.90;;;;;;8436393;28;20366;-74
2024/01/13 02:57:17;;;;;;;;;;;3.50;99.90;;;;;;8436542;28;19930;-74
2024/01/13 03:01:19;;;;;;;;;;;3.50;99.90;;;;;;8459306;28;19924;-73
2024/01/13 03:05:22;;;;;;;;;;;3.50;99.90;;;;;;8430122;28;19924;-73
2024/01/13 03:09:24;;;;;;;;;;;3.50;99.90;;;;;;8445331;28;19923;-74
2024/01/13 03:13:25;;;;;;;;;;;3.50;99.90;;;;;;8439153;27;19940;-74
2024/01/13 03:17:27;;;;;;;;;;;3.50;99.90;;;;;;8435924;28;19931;-73
2024/01/13 03:21:29;;;;;;;;;;;3.50;99.90;;;;;;8434323;28;19924;-73
2024/01/13 03:25:30;;;;;;;;;;;3.40;99.90;;;;;;8426520;28;19924;-74
2024/01/13 03:29:32;;;;;;;;;;;3.40;99.90;;;;;;8435547;28;19930;-73
2024/01/13 03:33:34;;;;;;;;;;;3.50;99.90;;;;;;8436153;28;19974;-73
2024/01/13 03:37:36;;;;;;;;;;;3.40;99.90;;;;;;8437387;28;19947;-73
2024/01/13 03:41:38;;;;;;;;;;;3.40;99.90;;;;;;8439394;28;19927;-73
2024/01/13 03:45:39;;;;;;;;;;;3.40;99.90;;;;;;8435647;28;20430;-73
2024/01/13 03:49:41;;;;;;;;;;;3.40;99.90;;;;;;8457461;28;19928;-73
2024/01/13 03:53:43;;;;;;;;;;;3.40;99.90;;;;;;8429488;28;19977;-73
2024/01/13 03:57:44;;;;;;;;;;;3.40;99.90;;;;;;8444458;28;19965;-73
2024/01/13 04:01:47;;;;;;;;;;;3.40;99.90;;;;;;8454622;28;19924;-73
2024/01/13 04:05:49;;;;;;;;;;;3.40;99.90;;;;;;8445621;28;19924;-73
2024/01/13 04:09:51;;;;;;;;;;;3.50;99.90;;;;;;8440006;28;19963;-74
2024/01/13 04:13:53;;;;;;;;;;;3.50;99.90;;;;;;8433808;28;19934;-73
2024/01/13 04:17:54;;;;;;;;;;;3.50;99.90;;;;;;8453866;28;19924;-73
2024/01/13 04:21:56;;;;;;;;;;;3.50;99.90;;;;;;8431926;28;19998;-73
2024/01/13 04:25:58;;;;;;;;;;;3.50;99.90;;;;;;8423354;28;19930;-73
2024/01/13 04:30:00;;;;;;;;;;;3.50;99.90;;;;;;8451461;28;19935;-74
2024/01/13 04:34:01;;;;;;;;;;;3.50;99.90;;;;;;8459977;27;19959;-73
2024/01/13 04:38:03;;;;;;;;;;;3.50;99.90;;;;;;8449123;28;19930;-73
2024/01/13 04:42:05;;;;;;;;;;;3.50;99.90;;;;;;8430823;28;19938;-73
2024/01/13 04:46:07;;;;;;;;;;;3.50;99.90;;;;;;8433655;28;19939;-73
2024/01/13 04:50:09;;;;;;;;;;;3.50;99.90;;;;;;8431912;28;19979;-73
2024/01/13 04:54:11;;;;;;;;;;;3.60;99.90;;;;;;8435960;28;19928;-73
2024/01/13 04:58:13;;;;;;;;;;;3.60;99.90;;;;;;8440257;28;19971;-73
2024/01/13 05:02:15;;;;;;;;;;;3.60;99.90;;;;;;8444874;28;19924;-73
2024/01/13 05:06:17;;;;;;;;;;;3.50;99.90;;;;;;8439608;28;19924;-73
2024/01/13 05:10:18;;;;;;;;;;;3.60;99.90;;;;;;8470617;27;19924;-73
2024/01/13 05:14:20;;;;;;;;;;;3.60;99.90;;;;;;8475893;27;20371;-73
2024/01/13 05:18:22;;;;;;;;;;;3.60;99.90;;;;;;8457876;28;19924;-74
2024/01/13 05:22:24;;;;;;;;;;;3.60;99.90;;;;;;8440130;28;19932;-73
2024/01/13 05:26:26;;;;;;;;;;;3.60;99.90;;;;;;8435409;28;19928;-74
2024/01/13 05:30:32;;;;;;;;;;;3.60;99.90;;;;;;8452749;28;20256;-73
2024/01/13 05:34:34;;;;;;;;;;;3.60;99.90;;;;;;8455254;28;19924;-73
2024/01/13 05:38:35;;;;;;;;;;;3.60;99.90;;;;;;8443073;27;19927;-73
2024/01/13 05:42:37;;;;;;;;;;;3.60;99.90;;;;;;8453513;27;19924;-73
2024/01/13 05:46:39;;;;;;;;;;;3.60;99.90;;;;;;8434965;28;19935;-73
2024/01/13 05:50:40;;;;;;;;;;;3.60;99.90;;;;;;8452708;28;19924;-74
2024/01/13 05:54:42;;;;;;;;;;;3.60;99.90;;;;;;8435293;28;20263;-73
2024/01/13 05:58:44;;;;;;;;;;;3.60;99.90;;;;;;8415004;27;19997;-74
2024/01/13 06:02:46;;;;;;;;;;;3.70;99.90;;;;;;8434983;28;20359;-73
2024/01/13 06:06:47;;;;;;;;;;;3.60;99.90;;;;;;8446832;28;20278;-73
2024/01/13 06:10:50;;;;;;;;;;;3.70;99.90;;;;;;8436186;27;20287;-73
2024/01/13 06:14:52;;;;;;;;;;;3.70;99.90;;;;;;8458285;28;19924;-73
2024/01/13 06:18:53;;;;;;;;;;;3.70;99.90;;;;;;8457990;28;20382;-73
2024/01/13 06:22:55;;;;;;;;;;;3.70;99.90;;;;;;8453126;28;19931;-73
2024/01/13 06:26:58;;;;;;;;;;;3.70;99.90;;;;;;8424411;28;20375;-73
2024/01/13 06:30:59;;;;;;;;;;;3.70;99.90;;;;;;8437351;27;20352;-73
2024/01/13 06:35:01;;;;;;;;;;;3.70;99.90;;;;;;8411968;28;20299;-73
2024/01/13 06:39:04;;;;;;;;;;;3.70;99.90;;;;;;8423143;28;20587;-73
2024/01/13 06:43:10;;;;;;;;;;;3.70;99.90;;;;;;8395360;28;19924;-73
2024/01/13 06:47:12;;;;;;;;;;;3.70;99.90;;;;;;8384355;28;19924;-73
2024/01/13 06:51:14;;;;;;;;;;;3.70;99.90;;;;;;8395946;28;19928;-73
2024/01/13 06:55:16;;;;;;;;;;;3.70;99.90;;;;;;8395548;28;19932;-73
2024/01/13 06:59:18;;;;;;;;;;;3.60;99.90;;;;;;8402757;28;19938;-73
2024/01/13 07:03:20;;;;;;;;;;;3.70;99.90;;;;;;8396969;28;19924;-73
2024/01/13 07:07:22;;;;;;;;;;;3.60;99.90;;;;;;8399213;28;19924;-73
2024/01/13 07:11:24;;;;;;;;;;;3.60;99.90;;;;;;8391897;28;19932;-73
2024/01/13 07:15:25;;;;;;;;;;;3.70;99.90;;;;;;8389612;28;19940;-73
2024/01/13 07:19:27;;;;;;;;;;;3.70;99.90;;;;;;8413419;28;19925;-73
2024/01/13 07:23:30;;;;;;;;;;;3.70;99.90;;;;;;8393015;28;20426;-73
2024/01/13 07:27:31;;;;;;;;;;;3.70;99.90;;;;;;8393752;28;19925;-73
2024/01/13 07:31:33;;;;;;;;;;;3.60;99.90;;;;;;8401177;28;19932;-73
2024/01/13 07:35:35;;;;;;;;;;;3.60;99.90;;;;;;8441602;28;19923;-73
2024/01/13 07:39:37;;;;;;;;;;;3.60;99.90;;;;;;8443862;28;20565;-73
2024/01/13 07:43:39;;;;;;;;;;;3.60;99.90;;;;;;8455794;28;19924;-74
2024/01/13 07:47:41;;;;;;;;;;;3.60;99.90;;;;;;8457947;28;19924;-73
2024/01/13 07:56:22;;;;;;;;;;;3.70;99.90;;;;;;8452982;28;19936;-73
2024/01/13 08:00:26;;;;;;;;;;;3.70;99.90;;;;;;8447825;28;20336;-73
2024/01/13 08:09:31;;;;;;;;;;;3.80;99.90;;;;;;8449541;27;20061;-73
2024/01/13 08:13:33;;;;;;;;;;;3.90;99.90;;;;;;8460893;27;20346;-73
2024/01/13 08:17:35;;;;;;;;;;;3.80;99.90;;;;;;8438288;28;19977;-73
2024/01/13 08:21:37;;;;;;;;;;;3.90;99.90;;;;;;8455221;28;20362;-73
2024/01/13 08:25:40;;;;;;;;;;;3.90;99.90;;;;;;8432983;28;19947;-73
2024/01/13 08:29:57;;;;;;;;;;;3.90;99.90;;;;;;8452729;28;19924;-73
2024/01/13 08:33:59;;;;;;;;;;;3.90;99.90;;;;;;8455102;28;19930;-73
2024/01/13 08:38:01;;;;;;;;;;;3.90;99.90;;;;;;8457357;28;19924;-73
2024/01/13 08:42:03;;;;;;;;;;;3.90;99.90;;;;;;8454398;28;19931;-73
2024/01/13 08:46:04;;;;;;;;;;;4.00;99.90;;;;;;8461255;28;19924;-73
2024/01/13 08:50:07;;;;;;;;;;;4.00;99.90;;;;;;8451263;28;20286;-73
2024/01/13 08:54:08;;;;;;;;;;;4.00;99.90;;;;;;8443697;28;19924;-73
2024/01/13 08:58:10;;;;;;;;;;;4.00;99.90;;;;;;8456460;28;19951;-73
2024/01/13 09:02:12;;;;;;;;;;;4.00;99.90;;;;;;8453453;28;19932;-73
2024/01/13 09:06:14;;;;;;;;;;;4.00;99.90;;;;;;8457706;28;19924;-73
2024/01/13 09:10:16;;;;;;;;;;;4.00;99.90;;;;;;8457560;28;19967;-73
2024/01/13 09:14:18;;;;;;;;;;;4.00;99.90;;;;;;8451628;28;19928;-73
2024/01/13 09:18:19;;;;;;;;;;;4.00;99.90;;;;;;8460230;28;19924;-73
2024/01/13 09:22:21;;;;;;;;;;;4.00;99.90;;;;;;8450690;28;19932;-73
2024/01/13 09:26:23;;;;;;;;;;;4.00;99.90;;;;;;8434196;28;19928;-73
2024/01/13 09:30:25;;;;;;;;;;;4.00;99.90;;;;;;8449904;28;19923;-73
2024/01/13 09:34:27;;;;;;;;;;;4.00;99.90;;;;;;8451538;28;20428;-73
2024/01/13 09:38:29;;;;;;;;;;;4.00;99.90;;;;;;8443706;28;19928;-73
2024/01/13 09:42:42;;;;;;;;;;;4.00;99.90;;;;;;8438325;28;19931;-73
2024/01/13 09:46:44;;;;;;;;;;;4.00;99.90;;;;;;8455639;28;19946;-74
2024/01/13 09:50:53;;;;;;;;;;;4.10;99.90;;;;;;8457266;28;19964;-73
2024/01/13 09:54:58;;;;;;;;;;;4.10;99.90;;;;;;8451866;28;20378;-73
2024/01/13 09:59:02;;;;;;;;;;;4.10;99.90;;;;;;8455007;28;19928;-73
2024/01/13 10:03:03;;;;;;;;;;;4.10;99.90;;;;;;8440213;28;19930;-73
2024/01/13 10:07:07;;;;;;;;;;;4.10;99.90;;;;;;8451872;28;19989;-73
2024/01/13 10:11:09;;;;;;;;;;;4.20;99.90;;;;;;8460719;28;19924;-73
2024/01/13 10:15:15;;;;;;;;;;;4.20;99.90;;;;;;8440046;28;19924;-73
2024/01/13 10:19:17;;;;;;;;;;;4.20;99.90;;;;;;8453431;28;19932;-73
2024/01/13 10:23:19;;;;;;;;;;;4.20;99.90;;;;;;8439777;28;19978;-73
2024/01/13 10:27:21;;;;;;;;;;;4.20;99.90;;;;;;8431714;28;19931;-73
2024/01/13 10:31:23;;;;;;;;;;;4.20;99.90;;;;;;8456611;28;19924;-73
2024/01/13 10:35:33;;;;;;;;;;;4.20;99.90;;;;;;8458230;28;20303;-73
2024/01/13 10:39:34;;;;;;;;;;;4.20;99.90;;;;;;8436536;28;19928;-73
2024/01/13 10:43:38;;;;;;;;;;;4.30;99.90;;;;;;8456516;28;19924;-73
2024/01/13 10:47:45;;;;;;;;;;;4.20;99.90;;;;;;8448813;28;19931;-73
2024/01/13 10:51:52;;;;;;;;;;;4.20;99.90;;;;;;8455988;28;20299;-73
2024/01/13 10:55:55;;;;;;;;;;;4.20;99.90;;;;;;8439153;28;20002;-73
2024/01/13 10:59:57;;;;;;;;;;;4.20;99.90;;;;;;8450959;27;19923;-73
2024/01/13 11:03:59;;;;;;;;;;;4.20;99.90;;;;;;8443081;28;19971;-73
2024/01/13 11:08:04;;;;;;;;;;;4.20;99.90;;;;;;8435643;28;19978;-73
2024/01/13 11:12:16;;;;;;;;;;;4.10;99.90;;;;;;8450275;28;19931;-73
2024/01/13 11:16:19;;;;;;;;;;;4.10;99.90;;;;;;8456508;28;20009;-73
2024/01/13 11:20:22;;;;;;;;;;;4.10;99.90;;;;;;8444866;27;19986;-73
2024/01/13 11:24:25;;;;;;;;;;;4.10;99.90;;;;;;8432032;28;20298;-73
2024/01/13 11:28:41;;;;;;;;;;;4.20;99.90;;;;;;8434792;28;19932;-73
2024/01/13 11:32:43;;;;;;;;;;;4.10;99.90;;;;;;8439442;28;19924;-73
2024/01/13 11:36:50;;;;;;;;;;;4.10;99.90;;;;;;8421153;28;19924;-73
2024/01/13 11:40:54;;;;;;;;;;;4.10;99.90;;;;;;8451844;28;19973;-73
2024/01/13 11:44:55;;;;;;;;;;;4.10;99.90;;;;;;8444196;28;20306;-73
2024/01/13 11:49:01;;;;;;;;;;;4.10;99.90;;;;;;8444628;28;19930;-73
2024/01/13 11:53:23;;;;;;;;;;;4.20;99.90;;;;;;8441013;27;20051;-73
2024/01/13 12:02:28;;;;;;;;;;;4.20;99.90;;;;;;8436138;28;19981;-73
2024/01/13 12:06:30;;;;;;;;;;;4.20;99.90;;;;;;8440731;28;19923;-73
2024/01/13 12:10:40;;;;;;;;;;;4.20;99.90;;;;;;8442317;28;19928;-73
2024/01/13 12:14:42;;;;;;;;;;;4.20;99.90;;;;;;8444834;28;19928;-73
2024/01/13 12:18:47;;;;;;;;;;;4.20;99.90;;;;;;8442940;28;19928;-73
2024/01/13 12:22:49;;;;;;;;;;;4.30;99.90;;;;;;8444229;27;19924;-73
2024/01/13 12:26:51;;;;;;;;;;;4.20;99.90;;;;;;8423059;28;20033;-73
2024/01/13 12:30:53;;;;;;;;;;;4.20;99.90;;;;;;8426800;28;20211;-73
2024/01/13 12:34:55;;;;;;;;;;;4.20;99.90;;;;;;8421305;28;19928;-73
2024/01/13 12:38:59;;;;;;;;;;;4.20;99.90;;;;;;8424082;28;20200;-73
2024/01/13 12:43:01;;;;;;;;;;;4.20;99.90;;;;;;8428981;28;21013;-73
2024/01/13 12:47:03;;;;;;;;;;;4.30;99.90;;;;;;8418567;28;19924;-73
2024/01/13 12:51:09;;;;;;;;;;;4.30;99.90;;;;;;8414293;28;20464;-73
2024/01/13 12:55:11;;;;;;;;;;;4.20;99.90;;;;;;8422590;28;20402;-73
2024/01/13 12:59:16;;;;;;;;;;;4.20;99.90;;;;;;8427940;28;19935;-73
2024/01/13 13:03:18;;;;;;;;;;;4.20;99.90;;;;;;8420485;28;19928;-73
2024/01/13 13:07:24;;;;;;;;;;;4.20;99.90;;;;;;8419655;28;20553;-73
2024/01/13 13:11:27;;;;;;;;;;;4.20;99.90;;;;;;8410016;28;19923;-73
2024/01/13 13:15:29;;;;;;;;;;;4.20;99.90;;;;;;8422383;28;20470;-73
2024/01/13 13:19:31;;;;;;;;;;;4.20;99.90;;;;;;8426767;27;19928;-73
2024/01/13 13:23:32;;;;;;;;;;;4.20;99.90;;;;;;8423691;28;20007;-73
2024/01/13 13:27:34;;;;;;;;;;;4.20;99.90;;;;;;8427926;28;19969;-73
2024/01/13 13:31:36;;;;;;;;;;;4.20;99.90;;;;;;8431023;27;20306;-73
2024/01/13 13:35:38;;;;;;;;;;;4.20;99.90;;;;;;8426984;28;19931;-73
2024/01/13 13:39:41;;;;;;;;;;;4.20;99.90;;;;;;8432103;28;20023;-73
2024/01/13 13:43:43;;;;;;;;;;;4.20;99.90;;;;;;8424679;28;19928;-73
2024/01/13 13:47:45;;;;;;;;;;;4.20;99.90;;;;;;8430774;28;20013;-73
2024/01/13 13:51:51;;;;;;;;;;;4.10;99.90;;;;;;8441919;28;19966;-73
2024/01/13 13:55:53;;;;;;;;;;;4.20;99.90;;;;;;8444574;28;19924;-73
2024/01/13 13:59:55;;;;;;;;;;;4.20;99.90;;;;;;8440191;28;19930;-73
2024/01/13 14:03:56;;;;;;;;;;;4.20;99.90;;;;;;8428411;28;19959;-73
2024/01/13 14:07:58;;;;;;;;;;;4.20;99.90;;;;;;8445024;28;20371;-73
2024/01/13 14:12:00;;;;;;;;;;;4.20;99.90;;;;;;8431379;28;19936;-72
2024/01/13 14:16:01;;;;;;;;;;;4.20;99.90;;;;;;8439762;28;19947;-73
2024/01/13 14:20:04;;;;;;;;;;;4.20;99.90;;;;;;8413100;28;19928;-73
2024/01/13 14:24:06;;;;;;;;;;;4.20;99.90;;;;;;8431984;28;19955;-73
2024/01/13 14:28:07;;;;;;;;;;;4.10;99.90;;;;;;8430167;28;19967;-73
2024/01/13 14:32:09;;;;;;;;;;;4.20;99.90;;;;;;8440799;27;19932;-73
2024/01/13 14:36:11;;;;;;;;;;;4.10;99.90;;;;;;8416293;28;20383;-72
2024/01/13 14:40:13;;;;;;;;;;;4.10;99.90;;;;;;8429259;28;19964;-72
2024/01/13 14:44:15;;;;;;;;;;;4.10;99.90;;;;;;8428148;28;19932;-73
2024/01/13 14:48:17;;;;;;;;;;;4.10;99.90;;;;;;8430942;28;19928;-73
2024/01/13 14:52:19;;;;;;;;;;;4.00;99.90;;;;;;8409979;28;19982;-73
2024/01/13 14:56:21;;;;;;;;;;;4.00;99.90;;;;;;8412899;28;19928;-73
2024/01/13 15:00:23;;;;;;;;;;;3.90;99.90;;;;;;8408037;28;19923;-73
2024/01/13 15:04:27;;;;;;;;;;;3.90;99.90;;;;;;8420253;28;20444;-73
2024/01/13 15:08:29;;;;;;;;;;;3.90;99.90;;;;;;8427114;28;19924;-73
2024/01/13 15:12:30;;;;;;;;;;;3.80;99.90;;;;;;8428591;28;19924;-73
2024/01/13 15:16:32;;;;;;;;;;;3.80;99.90;;;;;;8428777;28;20368;-73
2024/01/13 15:20:34;;;;;;;;;;;3.80;99.90;;;;;;8420867;28;20339;-72
2024/01/13 15:24:36;;;;;;;;;;;3.70;99.90;;;;;;8427051;28;19927;-72
2024/01/13 15:28:37;;;;;;;;;;;3.70;99.90;;;;;;8409062;28;19936;-72
2024/01/13 15:32:39;;;;;;;;;;;3.70;99.90;;;;;;8435166;28;19928;-72
2024/01/13 15:36:41;;;;;;;;;;;3.70;99.90;;;;;;8419394;28;19935;-73
2024/01/13 15:56:03;;;;;;;;;;;3.60;99.90;;;;;;8421245;28;20282;-73
2024/01/13 16:00:06;;;;;;;;;;;3.60;99.90;;;;;;8427701;28;19928;-73
2024/01/13 16:04:08;;;;;;;;;;;3.60;99.90;;;;;;8423132;28;19977;-73
2024/01/13 16:13:13;;;;;;;;;;;3.50;99.90;;;;;;8425632;28;20014;-73
2024/01/13 16:17:15;;;;;;;;;;;3.50;99.90;;;;;;8405089;28;19924;-72
2024/01/13 16:21:17;;;;;;;;;;;3.50;99.90;;;;;;8406524;28;20303;-73
2024/01/13 16:25:18;;;;;;;;;;;3.40;99.90;;;;;;8422400;28;20288;-73
2024/01/13 16:29:20;;;;;;;;;;;3.40;99.90;;;;;;8424343;28;20371;-73
2024/01/13 16:33:22;;;;;;;;;;;3.30;99.90;;;;;;8410447;28;20286;-73
2024/01/13 16:37:24;;;;;;;;;;;3.30;99.90;;;;;;8422409;28;19928;-73
2024/01/13 16:41:26;;;;;;;;;;;3.30;99.90;;;;;;8418807;28;19939;-73
2024/01/13 16:45:29;;;;;;;;;;;3.30;99.90;;;;;;8427458;28;19924;-74
2024/01/13 16:49:31;;;;;;;;;;;3.30;99.90;;;;;;8426964;28;20293;-73
2024/01/13 16:53:33;;;;;;;;;;;3.30;99.90;;;;;;8427965;28;19931;-74
2024/01/13 16:57:35;;;;;;;;;;;3.30;99.90;;;;;;8444688;28;19958;-73
2024/01/13 17:01:38;;;;;;;;;;;3.20;99.90;;;;;;8422886;28;20010;-74
2024/01/13 17:05:40;;;;;;;;;;;3.20;99.90;;;;;;8431086;27;19932;-73
2024/01/13 17:09:41;;;;;;;;;;;3.20;99.90;;;;;;8426778;28;19935;-74
2024/01/13 17:13:49;;;;;;;;;;;3.20;99.90;;;;;;8433511;28;19931;-74
2024/01/13 17:17:50;;;;;;;;;;;3.20;99.90;;;;;;8416777;28;19924;-73
2024/01/13 17:21:55;;;;;;;;;;;3.20;99.90;;;;;;8430017;28;20859;-74
2024/01/13 17:25:58;;;;;;;;;;;3.20;99.90;;;;;;8425956;28;19923;-73
2024/01/13 17:35:20;;;;;;;;;;;3.30;99.90;;;;;;8406163;28;20013;-73
2024/01/13 17:39:23;;;;;;;;;;;3.30;99.90;;;;;;8383234;28;19928;-74
2024/01/13 17:43:24;;;;;;;;;;;3.30;99.90;;;;;;8386317;28;20435;-74
2024/01/13 17:47:26;;;;;;;;;;;3.30;99.90;;;;;;8384534;28;19925;-74
2024/01/13 17:51:28;;;;;;;;;;;3.30;99.90;;;;;;8383766;28;19932;-74
2024/01/13 17:55:30;;;;;;;;;;;3.30;99.90;;;;;;8385091;28;20342;-74
2024/01/13 17:59:32;;;;;;;;;;;3.30;99.90;;;;;;8384929;28;19925;-73
2024/01/13 18:03:34;;;;;;;;;;;3.30;99.90;;;;;;8383192;28;19960;-74
2024/01/13 18:07:36;;;;;;;;;;;3.30;99.90;;;;;;8382999;28;20402;-74
2024/01/13 18:11:39;;;;;;;;;;;3.30;99.90;;;;;;8385622;28;19924;-73
2024/01/13 18:15:42;;;;;;;;;;;3.30;99.90;;;;;;8401735;28;19925;-73
2024/01/13 18:19:44;;;;;;;;;;;3.20;99.90;;;;;;8386814;28;19928;-73
2024/01/13 18:23:45;;;;;;;;;;;3.30;99.90;;;;;;8388183;28;19931;-73
2024/01/13 18:27:47;;;;;;;;;;;3.20;99.90;;;;;;8388342;28;19929;-73
2024/01/13 18:36:53;;;;;;;;;;;3.20;99.90;;;;;;8403827;28;19985;-73
2024/01/13 18:45:59;;;;;;;;;;;3.30;99.90;;;;;;8445863;28;19923;-73
2024/01/13 18:50:04;;;;;;;;;;;3.30;99.90;;;;;;8438467;28;19928;-73
2024/01/13 18:54:07;;;;;;;;;;;3.30;99.90;;;;;;8424943;28;19924;-73
2024/01/13 18:58:08;;;;;;;;;;;3.30;99.90;;;;;;8427333;28;19990;-73
2024/01/13 19:02:10;;;;;;;;;;;3.30;99.90;;;;;;8420477;28;19924;-73
2024/01/13 19:06:13;;;;;;;;;;;3.40;99.90;;;;;;8426381;28;19931;-73
2024/01/13 19:10:14;;;;;;;;;;;3.30;99.90;;;;;;8416715;28;19932;-73
2024/01/13 19:14:17;;;;;;;;;;;3.30;99.90;;;;;;8426185;28;19932;-73
2024/01/13 19:23:22;;;;;;;;;;;3.40;99.90;;;;;;8426026;28;19958;-73
2024/01/13 19:27:24;;;;;;;;;;;3.30;99.90;;;;;;8425912;28;19924;-73
2024/01/13 19:31:26;;;;;;;;;;;3.40;99.90;;;;;;8413385;28;20345;-73
2024/01/13 19:35:27;;;;;;;;;;;3.40;99.90;;;;;;8420506;28;19980;-73
2024/01/13 19:39:30;;;;;;;;;;;3.40;99.90;;;;;;8441035;27;19930;-73
2024/01/13 19:43:32;;;;;;;;;;;3.40;99.90;;;;;;8428472;28;19924;-73
2024/01/13 19:47:34;;;;;;;;;;;3.40;99.90;;;;;;8427016;28;19932;-73
2024/01/13 19:51:36;;;;;;;;;;;3.40;99.90;;;;;;8410171;28;19932;-73
2024/01/13 19:55:41;;;;;;;;;;;3.40;99.90;;;;;;8409129;28;20018;-73
2024/01/13 19:59:43;;;;;;;;;;;3.30;99.90;;;;;;8426611;28;19928;-73
2024/01/13 20:03:45;;;;;;;;;;;3.30;99.90;;;;;;8407749;28;19928;-73
2024/01/13 20:07:47;;;;;;;;;;;3.40;99.90;;;;;;8424510;28;19924;-73
2024/01/13 20:11:48;;;;;;;;;;;3.30;99.90;;;;;;8429361;28;19931;-73
2024/01/13 20:15:50;;;;;;;;;;;3.30;99.90;;;;;;8424820;28;20437;-73
2024/01/13 20:19:52;;;;;;;;;;;3.40;99.90;;;;;;8426735;28;19943;-73
2024/01/13 20:23:54;;;;;;;;;;;3.40;99.90;;;;;;8406189;28;20030;-73
2024/01/13 20:27:56;;;;;;;;;;;3.30;99.90;;;;;;8406287;28;19924;-72
2024/01/13 20:32:00;;;;;;;;;;;3.40;99.90;;;;;;8423750;28;19928;-73
2024/01/13 20:36:04;;;;;;;;;;;3.40;99.90;;;;;;8425110;28;19931;-73
2024/01/13 20:40:06;;;;;;;;;;;3.40;99.90;;;;;;8432808;28;20035;-73
2024/01/13 20:44:07;;;;;;;;;;;3.40;99.90;;;;;;8419982;28;19985;-73
2024/01/13 20:48:09;;;;;;;;;;;3.40;99.90;;;;;;8431149;28;19975;-73
2024/01/13 20:52:11;;;;;;;;;;;3.40;99.90;;;;;;8422767;28;19932;-73
2024/01/13 20:56:13;;;;;;;;;;;3.40;99.90;;;;;;8404955;28;19928;-73
2024/01/13 21:00:15;;;;;;;;;;;3.40;99.90;;;;;;8426533;28;19928;-73
2024/01/13 21:04:18;;;;;;;;;;;3.50;99.90;;;;;;8415258;28;19961;-73
2024/01/13 21:08:20;;;;;;;;;;;3.50;99.90;;;;;;8423751;28;19924;-73
2024/01/13 21:12:22;;;;;;;;;;;3.50;99.90;;;;;;8422571;28;19932;-72
2024/01/13 21:16:23;;;;;;;;;;;3.50;99.90;;;;;;8425455;28;19979;-73
2024/01/13 21:20:25;;;;;;;;;;;3.50;99.90;;;;;;8431928;28;19975;-73
2024/01/13 21:24:27;;;;;;;;;;;3.50;99.90;;;;;;8414934;28;19931;-72
2024/01/13 21:28:29;;;;;;;;;;;3.50;99.90;;;;;;8411102;28;20617;-73
2024/01/13 21:32:30;;;;;;;;;;;3.50;99.90;;;;;;8423578;28;19982;-73
2024/01/13 21:36:32;;;;;;;;;;;3.60;99.90;;;;;;8422956;28;19942;-73
2024/01/13 21:40:37;;;;;;;;;;;3.60;99.90;;;;;;8432110;28;19996;-73
2024/01/13 21:44:39;;;;;;;;;;;3.60;99.90;;;;;;8435269;28;19940;-73
2024/01/13 21:48:41;;;;;;;;;;;3.60;99.90;;;;;;8411280;28;20386;-72
2024/01/13 21:52:43;;;;;;;;;;;3.60;99.90;;;;;;8429209;28;19939;-73
2024/01/13 21:56:44;;;;;;;;;;;3.60;99.90;;;;;;8427332;28;19971;-72
2024/01/13 22:00:46;;;;;;;;;;;3.60;99.90;;;;;;8430493;28;19935;-74
2024/01/13 22:04:48;;;;;;;;;;;3.60;99.90;;;;;;8451751;27;19965;-73
2024/01/13 22:08:50;;;;;;;;;;;3.60;99.90;;;;;;8451683;28;19931;-73
2024/01/13 22:12:54;;;;;;;;;;;3.60;99.90;;;;;;8455775;28;19927;-73
2024/01/13 22:16:55;;;;;;;;;;;3.60;99.90;;;;;;8457338;28;19969;-73
2024/01/13 22:20:57;;;;;;;;;;;3.60;99.90;;;;;;8455868;28;19931;-72
2024/01/13 22:24:59;;;;;;;;;;;3.50;99.90;;;;;;8452975;28;19924;-72
2024/01/13 22:29:01;;;;;;;;;;;3.50;99.90;;;;;;8452752;28;19924;-73
2024/01/13 22:33:03;;;;;;;;;;;3.50;99.90;;;;;;8434974;28;19924;-72
2024/01/13 22:37:05;;;;;;;;;;;3.50;99.90;;;;;;8454775;28;19927;-73
2024/01/13 22:41:10;;;;;;;;;;;3.50;99.90;;;;;;8439416;28;20430;-73
2024/01/13 22:45:15;;;;;;;;;;;3.50;99.90;;;;;;8458059;28;19924;-73
2024/01/13 22:54:20;;;;;;;;;;;3.50;99.90;;;;;;8453092;28;20190;-73
2024/01/13 22:58:22;;;;;;;;;;;3.50;99.90;;;;;;8450394;28;19924;-72
2024/01/13 23:02:24;;;;;;;;;;;3.50;99.90;;;;;;8436436;28;19930;-73
2024/01/13 23:06:27;;;;;;;;;;;3.50;99.90;;;;;;8455586;28;19976;-73
2024/01/13 23:10:29;;;;;;;;;;;3.50;99.90;;;;;;8450258;28;19936;-72
2024/01/13 23:14:31;;;;;;;;;;;3.50;99.90;;;;;;8436530;28;19924;-72
2024/01/13 23:18:34;;;;;;;;;;;3.50;99.90;;;;;;8437807;28;20288;-72
2024/01/13 23:37:53;;;;;;;;;;;3.60;99.90;;;;;;8425291;28;19976;-73
2024/01/13 23:41:54;;;;;;;;;;;3.60;99.90;;;;;;8383306;28;19954;-72
2024/01/13 23:45:56;;;;;;;;;;;3.60;99.90;;;;;;8385770;28;20367;-73
2024/01/13 23:49:58;;;;;;;;;;;3.70;99.90;;;;;;8384844;28;20318;-72
2024/01/13 23:54:00;;;;;;;;;;;3.60;99.90;;;;;;8400160;28;19971;-73
2024/01/13 23:58:02;;;;;;;;;;;3.60;99.90;;;;;;8389307;28;19959;-73
